sensor_id;sensor_type;location;lat;lon;timestamp;temperature;humidity
36352;DHT22;22382;44.768;17.206;2024-03-17T00:00:38;12.40;99.90
36352;DHT22;22382;44.768;17.206;2024-03-17T00:03:06;12.50;99.90
36352;DHT22;22382;44.768;17.206;2024-03-17T00:05:35;12.50;99.90
36352;DHT22;22382;44.768;17.206;2024-03-17T00:08:02;12.50;99.90
36352;DHT22;22382;44.768;17.206;2024-03-17T00:10:31;12.40;99.90
36352;DHT22;22382;44.768;17.206;2024-03-17T00:12:57;12.40;99.90
36352;DHT22;22382;44.768;17.206;2024-03-17T00:15:24;12.40;99.90
36352;DHT22;22382;44.768;17.206;2024-03-17T00:17:50;12.40;99.90
36352;DHT22;22382;44.768;17.206;2024-03-17T00:20:16;12.40;99.90
36352;DHT22;22382;44.768;17.206;2024-03-17T00:22:49;12.30;99.90
36352;DHT22;22382;44.768;17.206;2024-03-17T00:25:17;12.30;99.90
36352;DHT22;22382;44.768;17.206;2024-03-17T00:27:43;12.20;99.90
36352;DHT22;22382;44.768;17.206;2024-03-17T00:30:11;12.20;99.90
36352;DHT22;22382;44.768;17.206;2024-03-17T00:32:42;12.20;99.90
36352;DHT22;22382;44.768;17.206;2024-03-17T00:35:09;12.10;99.90
36352;DHT22;22382;44.768;17.206;2024-03-17T00:37:38;12.10;99.90
36352;DHT22;22382;44.768;17.206;2024-03-17T00:40:05;12.10;99.90
36352;DHT22;22382;44.768;17.206;2024-03-17T00:42:32;12.10;99.90
36352;DHT22;22382;44.768;17.206;2024-03-17T00:44:59;12.10;99.90
36352;DHT22;22382;44.768;17.206;2024-03-17T00:47:29;12.10;99.90
36352;DHT22;22382;44.768;17.206;2024-03-17T00:49:55;12.00;99.90
36352;DHT22;22382;44.768;17.206;2024-03-17T00:52:21;12.00;99.90
36352;DHT22;22382;44.768;17.206;2024-03-17T00:54:47;11.90;99.90
36352;DHT22;22382;44.768;17.206;2024-03-17T00:57:15;11.90;99.90
36352;DHT22;22382;44.768;17.206;2024-03-17T00:59:44;11.80;99.90
36352;DHT22;22382;44.768;17.206;2024-03-17T01:02:15;11.80;99.90
36352;DHT22;22382;44.768;17.206;2024-03-17T01:04:45;11.70;99.90
36352;DHT22;22382;44.768;17.206;2024-03-17T01:07:11;11.70;99.90
36352;DHT22;22382;44.768;17.206;2024-03-17T01:09:38;11.70;99.90
36352;DHT22;22382;44.768;17.206;2024-03-17T01:12:04;11.60;99.90
36352;DHT22;22382;44.768;17.206;2024-03-17T01:14:32;11.70;99.90
36352;DHT22;22382;44.768;17.206;2024-03-17T01:17:00;11.70;99.90
36352;DHT22;22382;44.768;17.206;2024-03-17T01:19:26;11.70;99.90
36352;DHT22;22382;44.768;17.206;2024-03-17T01:21:52;11.80;99.90
36352;DHT22;22382;44.768;17.206;2024-03-17T01:24:19;11.80;99.90
36352;DHT22;22382;44.768;17.206;2024-03-17T01:26:46;11.80;99.90
36352;DHT22;22382;44.768;17.206;2024-03-17T01:29:12;11.80;99.90
36352;DHT22;22382;44.768;17.206;2024-03-17T01:31:39;11.80;99.90
36352;DHT22;22382;44.768;17.206;2024-03-17T01:34:05;11.80;99.90
36352;DHT22;22382;44.768;17.206;2024-03-17T01:36:31;12.10;99.90
36352;DHT22;22382;44.768;17.206;2024-03-17T01:38:57;12.30;99.90
36352;DHT22;22382;44.768;17.206;2024-03-17T01:41:24;12.40;99.90
36352;DHT22;22382;44.768;17.206;2024-03-17T01:43:50;12.30;99.90
36352;DHT22;22382;44.768;17.206;2024-03-17T01:46:17;12.20;99.90
36352;DHT22;22382;44.768;17.206;2024-03-17T01:48:44;12.10;99.90
36352;DHT22;22382;44.768;17.206;2024-03-17T01:51:13;12.00;99.90
36352;DHT22;22382;44.768;17.206;2024-03-17T01:53:42;12.00;99.90
36352;DHT22;22382;44.768;17.206;2024-03-17T01:56:10;12.00;99.90
36352;DHT22;22382;44.768;17.206;2024-03-17T01:58:36;11.90;99.90
36352;DHT22;22382;44.768;17.206;2024-03-17T02:01:03;11.90;99.90
36352;DHT22;22382;44.768;17.206;2024-03-17T02:03:32;11.80;99.90
36352;DHT22;22382;44.768;17.206;2024-03-17T02:05:58;11.80;99.90
36352;DHT22;22382;44.768;17.206;2024-03-17T02:08:25;11.90;99.90
36352;DHT22;22382;44.768;17.206;2024-03-17T02:10:54;11.90;99.90
36352;DHT22;22382;44.768;17.206;2024-03-17T02:13:24;12.00;99.90
36352;DHT22;22382;44.768;17.206;2024-03-17T02:15:50;11.90;99.90
36352;DHT22;22382;44.768;17.206;2024-03-17T02:18:16;11.90;99.90
36352;DHT22;22382;44.768;17.206;2024-03-17T02:20:42;11.80;99.90
36352;DHT22;22382;44.768;17.206;2024-03-17T02:23:26;11.70;99.90
36352;DHT22;22382;44.768;17.206;2024-03-17T02:25:53;11.60;99.90
36352;DHT22;22382;44.768;17.206;2024-03-17T02:28:19;11.60;99.90
36352;DHT22;22382;44.768;17.206;2024-03-17T02:30:45;11.50;99.90
36352;DHT22;22382;44.768;17.206;2024-03-17T02:33:11;11.50;99.90
36352;DHT22;22382;44.768;17.206;2024-03-17T02:35:37;11.50;99.90
36352;DHT22;22382;44.768;17.206;2024-03-17T02:38:04;11.50;99.90
36352;DHT22;22382;44.768;17.206;2024-03-17T02:40:30;11.50;99.90
36352;DHT22;22382;44.768;17.206;2024-03-17T02:42:56;11.40;99.90
36352;DHT22;22382;44.768;17.206;2024-03-17T02:45:22;11.30;99.90
36352;DHT22;22382;44.768;17.206;2024-03-17T02:47:48;11.30;99.90
36352;DHT22;22382;44.768;17.206;2024-03-17T02:50:16;11.40;99.90
36352;DHT22;22382;44.768;17.206;2024-03-17T02:52:42;11.70;99.90
36352;DHT22;22382;44.768;17.206;2024-03-17T02:55:08;11.70;99.90
36352;DHT22;22382;44.768;17.206;2024-03-17T02:57:35;11.70;99.90
36352;DHT22;22382;44.768;17.206;2024-03-17T03:00:02;11.60;99.90
36352;DHT22;22382;44.768;17.206;2024-03-17T03:02:31;11.50;99.90
36352;DHT22;22382;44.768;17.206;2024-03-17T03:04:57;11.30;99.90
36352;DHT22;22382;44.768;17.206;2024-03-17T03:07:23;11.20;99.90
36352;DHT22;22382;44.768;17.206;2024-03-17T03:09:51;11.00;99.90
36352;DHT22;22382;44.768;17.206;2024-03-17T03:12:17;10.90;99.90
36352;DHT22;22382;44.768;17.206;2024-03-17T03:14:43;10.90;99.90
36352;DHT22;22382;44.768;17.206;2024-03-17T03:17:09;10.80;99.90
36352;DHT22;22382;44.768;17.206;2024-03-17T03:19:35;10.80;99.90
36352;DHT22;22382;44.768;17.206;2024-03-17T03:22:01;10.80;99.90
36352;DHT22;22382;44.768;17.206;2024-03-17T03:24:27;10.70;99.90
36352;DHT22;22382;44.768;17.206;2024-03-17T03:26:54;10.70;99.90
36352;DHT22;22382;44.768;17.206;2024-03-17T03:29:20;10.70;99.90
36352;DHT22;22382;44.768;17.206;2024-03-17T03:31:46;10.70;99.90
36352;DHT22;22382;44.768;17.206;2024-03-17T03:34:15;10.80;99.90
36352;DHT22;22382;44.768;17.206;2024-03-17T03:36:41;10.90;99.90
36352;DHT22;22382;44.768;17.206;2024-03-17T03:39:07;10.90;99.90
36352;DHT22;22382;44.768;17.206;2024-03-17T03:41:38;11.00;99.90
36352;DHT22;22382;44.768;17.206;2024-03-17T03:44:04;11.00;99.90
36352;DHT22;22382;44.768;17.206;2024-03-17T03:46:30;11.00;99.90
36352;DHT22;22382;44.768;17.206;2024-03-17T03:48:56;11.00;99.90
36352;DHT22;22382;44.768;17.206;2024-03-17T03:51:23;10.90;99.90
36352;DHT22;22382;44.768;17.206;2024-03-17T03:53:51;11.00;99.90
36352;DHT22;22382;44.768;17.206;2024-03-17T03:56:18;10.90;99.90
36352;DHT22;22382;44.768;17.206;2024-03-17T03:58:46;10.90;99.90
36352;DHT22;22382;44.768;17.206;2024-03-17T04:01:12;10.90;99.90
36352;DHT22;22382;44.768;17.206;2024-03-17T04:03:47;10.80;99.90
36352;DHT22;22382;44.768;17.206;2024-03-17T04:06:14;10.80;99.90
36352;DHT22;22382;44.768;17.206;2024-03-17T04:08:42;10.80;99.90
36352;DHT22;22382;44.768;17.206;2024-03-17T04:11:09;10.70;99.90
36352;DHT22;22382;44.768;17.206;2024-03-17T04:13:35;10.60;99.90
36352;DHT22;22382;44.768;17.206;2024-03-17T04:16:05;10.50;99.90
36352;DHT22;22382;44.768;17.206;2024-03-17T04:18:32;10.90;99.90
36352;DHT22;22382;44.768;17.206;2024-03-17T04:21:05;10.70;99.90
36352;DHT22;22382;44.768;17.206;2024-03-17T04:23:33;10.50;99.90
36352;DHT22;22382;44.768;17.206;2024-03-17T04:26:00;10.40;99.90
36352;DHT22;22382;44.768;17.206;2024-03-17T04:28:27;10.40;99.90
36352;DHT22;22382;44.768;17.206;2024-03-17T04:31:01;10.30;99.90
36352;DHT22;22382;44.768;17.206;2024-03-17T04:33:27;10.20;99.90
36352;DHT22;22382;44.768;17.206;2024-03-17T04:35:53;10.10;99.90
36352;DHT22;22382;44.768;17.206;2024-03-17T04:38:19;10.10;99.90
36352;DHT22;22382;44.768;17.206;2024-03-17T04:40:46;10.00;99.90
36352;DHT22;22382;44.768;17.206;2024-03-17T04:43:12;10.00;99.90
36352;DHT22;22382;44.768;17.206;2024-03-17T04:45:38;9.90;99.90
36352;DHT22;22382;44.768;17.206;2024-03-17T04:48:04;9.90;99.90
36352;DHT22;22382;44.768;17.206;2024-03-17T04:50:31;9.90;99.90
36352;DHT22;22382;44.768;17.206;2024-03-17T04:53:01;9.90;99.90
36352;DHT22;22382;44.768;17.206;2024-03-17T04:55:27;9.80;99.90
36352;DHT22;22382;44.768;17.206;2024-03-17T04:57:54;9.80;99.90
36352;DHT22;22382;44.768;17.206;2024-03-17T05:00:20;9.90;99.90
36352;DHT22;22382;44.768;17.206;2024-03-17T05:02:47;9.90;99.90
36352;DHT22;22382;44.768;17.206;2024-03-17T05:05:13;9.90;99.90
36352;DHT22;22382;44.768;17.206;2024-03-17T05:07:39;10.00;99.90
36352;DHT22;22382;44.768;17.206;2024-03-17T05:10:05;10.00;99.90
36352;DHT22;22382;44.768;17.206;2024-03-17T05:12:32;10.00;99.90
36352;DHT22;22382;44.768;17.206;2024-03-17T05:14:59;10.10;99.90
36352;DHT22;22382;44.768;17.206;2024-03-17T05:17:25;10.10;99.90
36352;DHT22;22382;44.768;17.206;2024-03-17T05:19:51;10.20;99.90
36352;DHT22;22382;44.768;17.206;2024-03-17T05:22:17;10.20;99.90
36352;DHT22;22382;44.768;17.206;2024-03-17T05:24:43;10.20;99.90
36352;DHT22;22382;44.768;17.206;2024-03-17T05:27:09;10.30;99.90
36352;DHT22;22382;44.768;17.206;2024-03-17T05:29:35;10.30;99.90
36352;DHT22;22382;44.768;17.206;2024-03-17T05:32:04;10.30;99.90
36352;DHT22;22382;44.768;17.206;2024-03-17T05:34:31;10.40;99.90
36352;DHT22;22382;44.768;17.206;2024-03-17T05:36:58;10.50;99.90
36352;DHT22;22382;44.768;17.206;2024-03-17T05:39:24;10.50;99.90
36352;DHT22;22382;44.768;17.206;2024-03-17T05:41:51;10.60;99.90
36352;DHT22;22382;44.768;17.206;2024-03-17T05:44:17;10.60;99.90
36352;DHT22;22382;44.768;17.206;2024-03-17T05:46:43;10.60;99.90
36352;DHT22;22382;44.768;17.206;2024-03-17T05:49:09;10.70;99.90
36352;DHT22;22382;44.768;17.206;2024-03-17T05:51:36;10.70;99.90
36352;DHT22;22382;44.768;17.206;2024-03-17T05:54:02;10.80;99.90
36352;DHT22;22382;44.768;17.206;2024-03-17T05:56:29;10.80;99.90
36352;DHT22;22382;44.768;17.206;2024-03-17T05:58:55;10.80;99.90
36352;DHT22;22382;44.768;17.206;2024-03-17T06:01:21;11.00;99.90
36352;DHT22;22382;44.768;17.206;2024-03-17T06:03:48;10.90;99.90
36352;DHT22;22382;44.768;17.206;2024-03-17T06:06:14;10.90;99.90
36352;DHT22;22382;44.768;17.206;2024-03-17T06:08:40;11.00;99.90
36352;DHT22;22382;44.768;17.206;2024-03-17T06:11:07;11.20;99.90
36352;DHT22;22382;44.768;17.206;2024-03-17T06:13:34;11.30;99.90
36352;DHT22;22382;44.768;17.206;2024-03-17T06:16:02;11.40;99.90
36352;DHT22;22382;44.768;17.206;2024-03-17T06:18:29;11.60;99.90
36352;DHT22;22382;44.768;17.206;2024-03-17T06:20:55;11.70;99.90
36352;DHT22;22382;44.768;17.206;2024-03-17T06:23:26;11.90;99.90
36352;DHT22;22382;44.768;17.206;2024-03-17T06:25:53;12.10;99.90
36352;DHT22;22382;44.768;17.206;2024-03-17T06:28:22;12.40;99.90
36352;DHT22;22382;44.768;17.206;2024-03-17T06:30:56;12.70;99.90
36352;DHT22;22382;44.768;17.206;2024-03-17T06:33:25;12.90;99.90
36352;DHT22;22382;44.768;17.206;2024-03-17T06:35:52;13.20;99.90
36352;DHT22;22382;44.768;17.206;2024-03-17T06:38:18;13.20;99.90
36352;DHT22;22382;44.768;17.206;2024-03-17T06:40:51;13.20;99.90
36352;DHT22;22382;44.768;17.206;2024-03-17T06:43:18;12.90;99.90
36352;DHT22;22382;44.768;17.206;2024-03-17T06:45:57;12.80;99.90
36352;DHT22;22382;44.768;17.206;2024-03-17T06:48:24;12.40;99.90
36352;DHT22;22382;44.768;17.206;2024-03-17T06:50:51;12.10;99.90
36352;DHT22;22382;44.768;17.206;2024-03-17T06:53:23;11.70;99.90
36352;DHT22;22382;44.768;17.206;2024-03-17T06:55:55;11.50;99.90
36352;DHT22;22382;44.768;17.206;2024-03-17T06:58:22;11.40;99.90
36352;DHT22;22382;44.768;17.206;2024-03-17T07:00:56;11.50;99.90
36352;DHT22;22382;44.768;17.206;2024-03-17T07:03:24;11.40;99.90
36352;DHT22;22382;44.768;17.206;2024-03-17T07:05:52;11.50;99.90
36352;DHT22;22382;44.768;17.206;2024-03-17T07:08:19;11.50;99.90
36352;DHT22;22382;44.768;17.206;2024-03-17T07:13:35;11.70;99.90
36352;DHT22;22382;44.768;17.206;2024-03-17T07:16:03;11.70;99.90
36352;DHT22;22382;44.768;17.206;2024-03-17T07:18:32;11.70;99.90
36352;DHT22;22382;44.768;17.206;2024-03-17T07:21:03;11.80;99.90
36352;DHT22;22382;44.768;17.206;2024-03-17T07:23:32;11.80;99.90
36352;DHT22;22382;44.768;17.206;2024-03-17T07:26:01;11.90;99.90
36352;DHT22;22382;44.768;17.206;2024-03-17T07:28:28;12.00;99.90
36352;DHT22;22382;44.768;17.206;2024-03-17T07:30:55;12.20;99.90
36352;DHT22;22382;44.768;17.206;2024-03-17T07:33:22;12.40;99.90
36352;DHT22;22382;44.768;17.206;2024-03-17T07:35:52;12.60;99.90
36352;DHT22;22382;44.768;17.206;2024-03-17T07:38:19;12.90;99.90
36352;DHT22;22382;44.768;17.206;2024-03-17T07:40:58;13.00;99.90
36352;DHT22;22382;44.768;17.206;2024-03-17T07:43:25;13.30;99.90
36352;DHT22;22382;44.768;17.206;2024-03-17T07:48:33;13.50;99.90
36352;DHT22;22382;44.768;17.206;2024-03-17T07:51:01;13.70;99.90
36352;DHT22;22382;44.768;17.206;2024-03-17T07:53:33;13.80;99.90
36352;DHT22;22382;44.768;17.206;2024-03-17T07:56:01;13.90;99.90
36352;DHT22;22382;44.768;17.206;2024-03-17T07:58:29;14.00;99.90
36352;DHT22;22382;44.768;17.206;2024-03-17T08:01:02;14.00;99.90
36352;DHT22;22382;44.768;17.206;2024-03-17T08:03:29;14.20;99.90
36352;DHT22;22382;44.768;17.206;2024-03-17T08:05:55;14.40;99.90
36352;DHT22;22382;44.768;17.206;2024-03-17T08:08:21;14.60;99.90
36352;DHT22;22382;44.768;17.206;2024-03-17T08:10:47;14.90;99.90
36352;DHT22;22382;44.768;17.206;2024-03-17T08:13:15;15.10;99.90
36352;DHT22;22382;44.768;17.206;2024-03-17T08:15:44;15.10;99.90
36352;DHT22;22382;44.768;17.206;2024-03-17T08:18:13;15.20;99.90
36352;DHT22;22382;44.768;17.206;2024-03-17T08:20:43;15.40;99.90
36352;DHT22;22382;44.768;17.206;2024-03-17T08:23:09;15.40;99.90
36352;DHT22;22382;44.768;17.206;2024-03-17T08:25:37;15.50;99.90
36352;DHT22;22382;44.768;17.206;2024-03-17T08:28:03;15.40;99.90
36352;DHT22;22382;44.768;17.206;2024-03-17T08:30:29;15.40;99.90
36352;DHT22;22382;44.768;17.206;2024-03-17T08:32:59;15.70;99.90
36352;DHT22;22382;44.768;17.206;2024-03-17T08:35:25;15.70;99.90
36352;DHT22;22382;44.768;17.206;2024-03-17T08:37:52;15.70;99.90
36352;DHT22;22382;44.768;17.206;2024-03-17T08:40:20;15.50;99.90
36352;DHT22;22382;44.768;17.206;2024-03-17T08:42:48;14.80;99.90
36352;DHT22;22382;44.768;17.206;2024-03-17T08:45:15;14.80;99.90
36352;DHT22;22382;44.768;17.206;2024-03-17T08:47:42;14.80;99.90
36352;DHT22;22382;44.768;17.206;2024-03-17T08:50:08;14.90;99.90
36352;DHT22;22382;44.768;17.206;2024-03-17T08:52:38;14.80;99.90
36352;DHT22;22382;44.768;17.206;2024-03-17T08:55:05;14.90;99.90
36352;DHT22;22382;44.768;17.206;2024-03-17T08:57:36;14.90;99.90
36352;DHT22;22382;44.768;17.206;2024-03-17T09:00:02;15.00;99.90
36352;DHT22;22382;44.768;17.206;2024-03-17T09:02:30;15.20;99.90
36352;DHT22;22382;44.768;17.206;2024-03-17T09:04:57;15.20;99.90
36352;DHT22;22382;44.768;17.206;2024-03-17T09:07:23;15.30;99.90
36352;DHT22;22382;44.768;17.206;2024-03-17T09:09:49;15.30;99.90
36352;DHT22;22382;44.768;17.206;2024-03-17T09:12:15;15.50;99.90
36352;DHT22;22382;44.768;17.206;2024-03-17T09:14:42;15.60;99.90
36352;DHT22;22382;44.768;17.206;2024-03-17T09:17:08;15.80;99.90
36352;DHT22;22382;44.768;17.206;2024-03-17T09:19:34;16.00;99.90
36352;DHT22;22382;44.768;17.206;2024-03-17T09:22:00;16.10;99.90
36352;DHT22;22382;44.768;17.206;2024-03-17T09:24:26;16.20;99.90
36352;DHT22;22382;44.768;17.206;2024-03-17T09:26:52;16.20;99.90
36352;DHT22;22382;44.768;17.206;2024-03-17T09:29:19;16.10;99.90
36352;DHT22;22382;44.768;17.206;2024-03-17T09:31:45;16.00;99.90
36352;DHT22;22382;44.768;17.206;2024-03-17T09:34:11;16.00;99.90
36352;DHT22;22382;44.768;17.206;2024-03-17T09:36:37;16.10;99.90
36352;DHT22;22382;44.768;17.206;2024-03-17T09:39:03;16.00;99.90
36352;DHT22;22382;44.768;17.206;2024-03-17T09:41:30;16.00;99.90
36352;DHT22;22382;44.768;17.206;2024-03-17T09:43:57;15.90;99.90
36352;DHT22;22382;44.768;17.206;2024-03-17T09:46:25;16.00;99.90
36352;DHT22;22382;44.768;17.206;2024-03-17T09:48:53;16.20;99.90
36352;DHT22;22382;44.768;17.206;2024-03-17T09:51:22;16.20;99.90
36352;DHT22;22382;44.768;17.206;2024-03-17T09:53:49;16.30;99.90
36352;DHT22;22382;44.768;17.206;2024-03-17T09:56:20;16.50;99.90
36352;DHT22;22382;44.768;17.206;2024-03-17T09:58:51;16.60;99.50
36352;DHT22;22382;44.768;17.206;2024-03-17T10:01:17;16.70;97.40
36352;DHT22;22382;44.768;17.206;2024-03-17T10:03:49;16.50;96.60
36352;DHT22;22382;44.768;17.206;2024-03-17T10:06:18;16.70;95.30
36352;DHT22;22382;44.768;17.206;2024-03-17T10:11:16;17.00;90.90
36352;DHT22;22382;44.768;17.206;2024-03-17T10:13:43;17.00;91.30
36352;DHT22;22382;44.768;17.206;2024-03-17T10:16:26;17.10;90.80
36352;DHT22;22382;44.768;17.206;2024-03-17T10:19:14;17.40;90.30
36352;DHT22;22382;44.768;17.206;2024-03-17T10:21:42;17.30;90.40
36352;DHT22;22382;44.768;17.206;2024-03-17T10:24:10;17.50;89.80
36352;DHT22;22382;44.768;17.206;2024-03-17T10:26:41;17.60;87.60
36352;DHT22;22382;44.768;17.206;2024-03-17T10:29:29;17.80;87.30
36352;DHT22;22382;44.768;17.206;2024-03-17T10:32:02;18.00;87.70
36352;DHT22;22382;44.768;17.206;2024-03-17T10:34:30;17.80;83.40
36352;DHT22;22382;44.768;17.206;2024-03-17T10:37:19;17.80;86.80
36352;DHT22;22382;44.768;17.206;2024-03-17T10:39:52;17.80;84.70
36352;DHT22;22382;44.768;17.206;2024-03-17T10:42:26;17.90;84.10
36352;DHT22;22382;44.768;17.206;2024-03-17T10:45:08;17.90;85.30
36352;DHT22;22382;44.768;17.206;2024-03-17T10:47:34;17.90;81.50
36352;DHT22;22382;44.768;17.206;2024-03-17T10:50:02;17.90;82.90
36352;DHT22;22382;44.768;17.206;2024-03-17T10:52:32;18.10;82.70
36352;DHT22;22382;44.768;17.206;2024-03-17T10:55:02;18.00;83.10
36352;DHT22;22382;44.768;17.206;2024-03-17T10:57:46;18.00;83.50
36352;DHT22;22382;44.768;17.206;2024-03-17T11:00:14;17.80;83.80
36352;DHT22;22382;44.768;17.206;2024-03-17T11:02:45;17.50;83.70
36352;DHT22;22382;44.768;17.206;2024-03-17T11:05:16;17.50;84.70
36352;DHT22;22382;44.768;17.206;2024-03-17T11:07:45;17.60;85.20
36352;DHT22;22382;44.768;17.206;2024-03-17T11:10:27;17.70;84.20
36352;DHT22;22382;44.768;17.206;2024-03-17T11:12:58;18.00;84.10
36352;DHT22;22382;44.768;17.206;2024-03-17T11:18:41;18.30;81.70
36352;DHT22;22382;44.768;17.206;2024-03-17T11:20:55;18.40;81.50
36352;DHT22;22382;44.768;17.206;2024-03-17T11:23:29;18.40;83.20
36352;DHT22;22382;44.768;17.206;2024-03-17T11:25:56;18.50;81.30
36352;DHT22;22382;44.768;17.206;2024-03-17T11:31:42;18.60;82.60
36352;DHT22;22382;44.768;17.206;2024-03-17T11:34:29;18.60;79.60
36352;DHT22;22382;44.768;17.206;2024-03-17T11:36:57;18.60;80.60
36352;DHT22;22382;44.768;17.206;2024-03-17T11:39:49;18.80;79.90
36352;DHT22;22382;44.768;17.206;2024-03-17T11:42:17;19.20;77.60
36352;DHT22;22382;44.768;17.206;2024-03-17T11:45:00;19.40;76.80
36352;DHT22;22382;44.768;17.206;2024-03-17T11:47:38;19.70;75.70
36352;DHT22;22382;44.768;17.206;2024-03-17T11:50:07;19.60;73.70
36352;DHT22;22382;44.768;17.206;2024-03-17T11:52:34;19.40;73.30
36352;DHT22;22382;44.768;17.206;2024-03-17T11:55:00;19.60;72.30
36352;DHT22;22382;44.768;17.206;2024-03-17T11:57:27;19.60;72.50
36352;DHT22;22382;44.768;17.206;2024-03-17T11:59:55;19.60;72.50
36352;DHT22;22382;44.768;17.206;2024-03-17T12:02:31;19.50;70.70
36352;DHT22;22382;44.768;17.206;2024-03-17T12:05:00;19.10;71.30
36352;DHT22;22382;44.768;17.206;2024-03-17T12:07:27;18.90;71.90
36352;DHT22;22382;44.768;17.206;2024-03-17T12:09:55;18.60;72.00
36352;DHT22;22382;44.768;17.206;2024-03-17T12:12:27;18.80;72.20
36352;DHT22;22382;44.768;17.206;2024-03-17T12:15:16;18.60;72.40
36352;DHT22;22382;44.768;17.206;2024-03-17T12:17:42;18.70;72.10
36352;DHT22;22382;44.768;17.206;2024-03-17T12:20:20;18.80;72.80
36352;DHT22;22382;44.768;17.206;2024-03-17T12:22:47;18.60;71.60
36352;DHT22;22382;44.768;17.206;2024-03-17T12:25:19;18.60;72.40
36352;DHT22;22382;44.768;17.206;2024-03-17T12:27:46;18.80;72.30
36352;DHT22;22382;44.768;17.206;2024-03-17T12:30:15;19.00;72.30
36352;DHT22;22382;44.768;17.206;2024-03-17T12:32:43;19.20;71.50
36352;DHT22;22382;44.768;17.206;2024-03-17T12:35:14;19.10;70.80
36352;DHT22;22382;44.768;17.206;2024-03-17T12:37:43;19.10;70.90
36352;DHT22;22382;44.768;17.206;2024-03-17T12:40:19;19.10;69.70
36352;DHT22;22382;44.768;17.206;2024-03-17T12:42:50;19.00;69.10
36352;DHT22;22382;44.768;17.206;2024-03-17T12:45:22;18.90;67.50
36352;DHT22;22382;44.768;17.206;2024-03-17T12:47:49;18.90;67.40
36352;DHT22;22382;44.768;17.206;2024-03-17T12:50:15;18.60;66.80
36352;DHT22;22382;44.768;17.206;2024-03-17T12:52:52;18.60;67.10
36352;DHT22;22382;44.768;17.206;2024-03-17T12:55:19;18.90;66.90
36352;DHT22;22382;44.768;17.206;2024-03-17T13:01:02;19.10;67.00
36352;DHT22;22382;44.768;17.206;2024-03-17T13:03:36;19.20;65.90
36352;DHT22;22382;44.768;17.206;2024-03-17T13:06:03;19.10;65.70
36352;DHT22;22382;44.768;17.206;2024-03-17T13:08:32;18.80;66.00
36352;DHT22;22382;44.768;17.206;2024-03-17T13:10:59;18.80;66.80
36352;DHT22;22382;44.768;17.206;2024-03-17T13:13:26;18.80;64.60
36352;DHT22;22382;44.768;17.206;2024-03-17T13:15:52;19.10;64.00
36352;DHT22;22382;44.768;17.206;2024-03-17T13:18:19;19.00;64.70
36352;DHT22;22382;44.768;17.206;2024-03-17T13:20:46;19.00;64.00
36352;DHT22;22382;44.768;17.206;2024-03-17T13:23:12;19.00;65.00
36352;DHT22;22382;44.768;17.206;2024-03-17T13:25:39;19.20;66.50
36352;DHT22;22382;44.768;17.206;2024-03-17T13:28:09;19.00;65.00
36352;DHT22;22382;44.768;17.206;2024-03-17T13:30:36;19.00;64.00
36352;DHT22;22382;44.768;17.206;2024-03-17T13:33:03;19.00;64.30
36352;DHT22;22382;44.768;17.206;2024-03-17T13:35:35;19.10;63.70
36352;DHT22;22382;44.768;17.206;2024-03-17T13:38:06;18.90;63.10
36352;DHT22;22382;44.768;17.206;2024-03-17T13:40:37;18.80;63.10
36352;DHT22;22382;44.768;17.206;2024-03-17T13:43:04;18.80;63.40
36352;DHT22;22382;44.768;17.206;2024-03-17T13:45:41;18.90;64.80
36352;DHT22;22382;44.768;17.206;2024-03-17T13:48:09;18.90;63.90
36352;DHT22;22382;44.768;17.206;2024-03-17T13:50:37;19.00;64.70
36352;DHT22;22382;44.768;17.206;2024-03-17T13:53:04;19.20;63.90
36352;DHT22;22382;44.768;17.206;2024-03-17T13:55:30;19.20;63.90
36352;DHT22;22382;44.768;17.206;2024-03-17T13:57:57;19.20;62.70
36352;DHT22;22382;44.768;17.206;2024-03-17T14:00:26;19.10;63.30
36352;DHT22;22382;44.768;17.206;2024-03-17T14:02:54;18.90;63.20
36352;DHT22;22382;44.768;17.206;2024-03-17T14:05:21;18.90;63.70
36352;DHT22;22382;44.768;17.206;2024-03-17T14:07:48;19.10;63.00
36352;DHT22;22382;44.768;17.206;2024-03-17T14:10:18;19.20;61.90
36352;DHT22;22382;44.768;17.206;2024-03-17T14:12:45;18.90;61.30
36352;DHT22;22382;44.768;17.206;2024-03-17T14:15:13;18.70;61.70
36352;DHT22;22382;44.768;17.206;2024-03-17T14:17:41;18.70;62.40
36352;DHT22;22382;44.768;17.206;2024-03-17T14:20:08;18.70;62.00
36352;DHT22;22382;44.768;17.206;2024-03-17T14:22:40;18.60;62.50
36352;DHT22;22382;44.768;17.206;2024-03-17T14:25:15;18.60;63.10
36352;DHT22;22382;44.768;17.206;2024-03-17T14:27:43;18.70;62.10
36352;DHT22;22382;44.768;17.206;2024-03-17T14:30:11;18.70;61.60
36352;DHT22;22382;44.768;17.206;2024-03-17T14:32:40;18.80;61.70
36352;DHT22;22382;44.768;17.206;2024-03-17T14:35:06;18.80;61.50
36352;DHT22;22382;44.768;17.206;2024-03-17T14:37:36;18.70;61.70
36352;DHT22;22382;44.768;17.206;2024-03-17T14:40:03;18.70;61.00
36352;DHT22;22382;44.768;17.206;2024-03-17T14:42:32;18.70;61.60
36352;DHT22;22382;44.768;17.206;2024-03-17T14:45:00;18.70;61.60
36352;DHT22;22382;44.768;17.206;2024-03-17T14:47:26;18.70;61.80
36352;DHT22;22382;44.768;17.206;2024-03-17T14:49:52;18.80;61.50
36352;DHT22;22382;44.768;17.206;2024-03-17T14:52:18;18.70;61.40
36352;DHT22;22382;44.768;17.206;2024-03-17T14:54:44;18.80;61.60
36352;DHT22;22382;44.768;17.206;2024-03-17T14:57:10;19.00;61.30
36352;DHT22;22382;44.768;17.206;2024-03-17T14:59:38;19.00;61.40
36352;DHT22;22382;44.768;17.206;2024-03-17T15:02:05;18.90;60.50
36352;DHT22;22382;44.768;17.206;2024-03-17T15:04:33;18.70;60.70
36352;DHT22;22382;44.768;17.206;2024-03-17T15:06:59;18.70;61.10
36352;DHT22;22382;44.768;17.206;2024-03-17T15:09:25;18.60;61.00
36352;DHT22;22382;44.768;17.206;2024-03-17T15:11:51;18.60;61.50
36352;DHT22;22382;44.768;17.206;2024-03-17T15:14:17;18.70;61.50
36352;DHT22;22382;44.768;17.206;2024-03-17T15:16:44;18.80;61.10
36352;DHT22;22382;44.768;17.206;2024-03-17T15:19:11;18.80;60.90
36352;DHT22;22382;44.768;17.206;2024-03-17T15:21:37;18.70;61.20
36352;DHT22;22382;44.768;17.206;2024-03-17T15:24:04;18.80;62.40
36352;DHT22;22382;44.768;17.206;2024-03-17T15:26:30;18.70;61.80
36352;DHT22;22382;44.768;17.206;2024-03-17T15:28:56;18.70;60.90
36352;DHT22;22382;44.768;17.206;2024-03-17T15:31:23;18.70;60.30
36352;DHT22;22382;44.768;17.206;2024-03-17T15:33:50;18.60;60.60
36352;DHT22;22382;44.768;17.206;2024-03-17T15:36:17;18.50;61.20
36352;DHT22;22382;44.768;17.206;2024-03-17T15:38:45;18.50;60.50
36352;DHT22;22382;44.768;17.206;2024-03-17T15:41:11;18.40;61.40